sensor_id;sensor_type;location;lat;lon;timestamp;pressure;altitude;pressure_sealevel;temperature;humidity
54556;BME280;57291;37.520;15.106;2024-03-07T00:00:45;101587.13;;;10.99;79.09
54556;BME280;57291;37.520;15.106;2024-03-07T00:03:13;101589.84;;;10.99;78.93
54556;BME280;57291;37.520;15.106;2024-03-07T00:05:41;101586.88;;;11.00;78.20
54556;BME280;57291;37.520;15.106;2024-03-07T00:08:09;101586.59;;;11.02;78.15
54556;BME280;57291;37.520;15.106;2024-03-07T00:10:38;101592.31;;;11.00;78.29
54556;BME280;57291;37.520;15.106;2024-03-07T00:13:05;101589.03;;;10.98;77.97
54556;BME280;57291;37.520;15.106;2024-03-07T00:15:33;101586.88;;;11.00;78.04
54556;BME280;57291;37.520;15.106;2024-03-07T00:18:00;101575.44;;;10.98;77.94
54556;BME280;57291;37.520;15.106;2024-03-07T00:20:28;101585.25;;;10.99;77.99
54556;BME280;57291;37.520;15.106;2024-03-07T00:22:56;101583.34;;;10.95;77.96
54556;BME280;57291;37.520;15.106;2024-03-07T00:25:24;101579.25;;;10.92;78.00
54556;BME280;57291;37.520;15.106;2024-03-07T00:27:51;101581.47;;;10.90;78.19
54556;BME280;57291;37.520;15.106;2024-03-07T00:30:20;101574.66;;;10.88;78.46
54556;BME280;57291;37.520;15.106;2024-03-07T00:32:48;101581.47;;;10.85;78.31
54556;BME280;57291;37.520;15.106;2024-03-07T00:35:16;101571.97;;;10.83;78.34
54556;BME280;57291;37.520;15.106;2024-03-07T00:37:43;101568.72;;;10.80;78.20
54556;BME280;57291;37.520;15.106;2024-03-07T00:40:11;101572.78;;;10.78;76.72
54556;BME280;57291;37.520;15.106;2024-03-07T00:42:38;101566.53;;;10.72;nan
54556;BME280;57291;37.520;15.106;2024-03-07T00:45:06;101560.06;;;10.63;72.31
54556;BME280;57291;37.520;15.106;2024-03-07T00:47:33;101569.84;;;10.59;70.63
54556;BME280;57291;37.520;15.106;2024-03-07T00:50:01;101557.88;;;10.55;68.87
54556;BME280;57291;37.520;15.106;2024-03-07T00:52:28;101554.91;;;10.51;63.67
54556;BME280;57291;37.520;15.106;2024-03-07T00:54:56;101547.56;;;10.52;57.56
54556;BME280;57291;37.520;15.106;2024-03-07T00:57:23;101544.59;;;10.53;52.04
54556;BME280;57291;37.520;15.106;2024-03-07T00:59:51;101545.94;;;10.51;52.15
54556;BME280;57291;37.520;15.106;2024-03-07T01:02:18;101545.38;;;10.49;51.29
54556;BME280;57291;37.520;15.106;2024-03-07T01:04:46;101547.28;;;10.48;50.90
54556;BME280;57291;37.520;15.106;2024-03-07T01:07:14;101543.75;;;10.43;50.88
54556;BME280;57291;37.520;15.106;2024-03-07T01:09:41;101551.13;;;10.37;50.86
54556;BME280;57291;37.520;15.106;2024-03-07T01:12:08;101546.22;;;10.29;50.66
54556;BME280;57291;37.520;15.106;2024-03-07T01:14:37;101543.25;;;10.20;50.84
54556;BME280;57291;37.520;15.106;2024-03-07T01:17:05;101534.25;;;10.15;51.00
54556;BME280;57291;37.520;15.106;2024-03-07T01:19:35;101541.59;;;10.09;50.99
54556;BME280;57291;37.520;15.106;2024-03-07T01:22:02;101538.63;;;10.10;51.07
54556;BME280;57291;37.520;15.106;2024-03-07T01:24:30;101540.50;;;10.10;50.75
54556;BME280;57291;37.520;15.106;2024-03-07T01:26:57;101535.91;;;10.05;50.55
54556;BME280;57291;37.520;15.106;2024-03-07T01:29:27;101539.97;;;10.03;50.69
54556;BME280;57291;37.520;15.106;2024-03-07T01:31:55;101531.00;;;10.02;50.23
54556;BME280;57291;37.520;15.106;2024-03-07T01:34:22;101526.38;;;10.03;49.65
54556;BME280;57291;37.520;15.106;2024-03-07T01:36:49;101528.84;;;10.04;49.67
54556;BME280;57291;37.520;15.106;2024-03-07T01:39:16;101520.69;;;10.04;49.55
54556;BME280;57291;37.520;15.106;2024-03-07T01:41:44;101515.50;;;10.03;49.39
54556;BME280;57291;37.520;15.106;2024-03-07T01:44:11;101515.81;;;10.01;49.11
54556;BME280;57291;37.520;15.106;2024-03-07T01:46:40;101514.19;;;10.00;49.50
54556;BME280;57291;37.520;15.106;2024-03-07T01:49:09;101507.66;;;10.01;49.02
54556;BME280;57291;37.520;15.106;2024-03-07T01:51:37;101507.63;;;10.06;48.31
54556;BME280;57291;37.520;15.106;2024-03-07T01:54:08;101501.66;;;10.09;47.51
54556;BME280;57291;37.520;15.106;2024-03-07T01:56:36;101509.00;;;10.14;47.32
54556;BME280;57291;37.520;15.106;2024-03-07T01:59:05;101505.47;;;10.19;47.12
54556;BME280;57291;37.520;15.106;2024-03-07T02:01:34;101502.19;;;10.17;47.38
54556;BME280;57291;37.520;15.106;2024-03-07T02:04:03;101496.78;;;10.12;47.33
54556;BME280;57291;37.520;15.106;2024-03-07T02:06:32;101494.91;;;10.07;47.40
54556;BME280;57291;37.520;15.106;2024-03-07T02:09:00;101497.03;;;10.00;47.44
54556;BME280;57291;37.520;15.106;2024-03-07T02:11:30;101497.59;;;9.92;47.89
54556;BME280;57291;37.520;15.106;2024-03-07T02:13:57;101500.59;;;9.85;48.38
54556;BME280;57291;37.520;15.106;2024-03-07T02:16:25;101495.97;;;9.75;48.63
54556;BME280;57291;37.520;15.106;2024-03-07T02:18:52;101491.91;;;9.68;48.78
54556;BME280;57291;37.520;15.106;2024-03-07T02:21:21;101497.59;;;9.66;48.69
54556;BME280;57291;37.520;15.106;2024-03-07T02:23:50;101503.81;;;9.67;48.51
54556;BME280;57291;37.520;15.106;2024-03-07T02:26:17;101496.78;;;9.66;48.59
54556;BME280;57291;37.520;15.106;2024-03-07T02:28:45;101491.34;;;9.66;49.20
54556;BME280;57291;37.520;15.106;2024-03-07T02:31:13;101498.97;;;9.69;49.13
54556;BME280;57291;37.520;15.106;2024-03-07T02:33:40;101492.97;;;9.67;49.38
54556;BME280;57291;37.520;15.106;2024-03-07T02:36:08;101501.94;;;9.67;49.29
54556;BME280;57291;37.520;15.106;2024-03-07T02:38:36;101504.38;;;9.63;49.51
54556;BME280;57291;37.520;15.106;2024-03-07T02:41:03;101498.41;;;9.61;49.75
54556;BME280;57291;37.520;15.106;2024-03-07T02:43:30;101497.28;;;9.57;50.11
54556;BME280;57291;37.520;15.106;2024-03-07T02:45:58;101490.53;;;9.55;50.93
54556;BME280;57291;37.520;15.106;2024-03-07T02:48:25;101493.50;;;9.53;50.72
54556;BME280;57291;37.520;15.106;2024-03-07T02:50:52;101497.28;;;9.57;51.03
54556;BME280;57291;37.520;15.106;2024-03-07T02:53:20;101492.44;;;9.59;50.94
54556;BME280;57291;37.520;15.106;2024-03-07T02:55:47;101490.00;;;9.63;50.82
54556;BME280;57291;37.520;15.106;2024-03-07T02:58:14;101491.63;;;9.64;51.01
54556;BME280;57291;37.520;15.106;2024-03-07T03:00:43;101495.16;;;9.65;51.21
54556;BME280;57291;37.520;15.106;2024-03-07T03:03:10;101494.34;;;9.64;51.64
54556;BME280;57291;37.520;15.106;2024-03-07T03:05:37;101506.00;;;9.65;52.00
54556;BME280;57291;37.520;15.106;2024-03-07T03:08:06;101491.09;;;9.62;52.31
54556;BME280;57291;37.520;15.106;2024-03-07T03:10:34;101499.50;;;9.66;52.28
54556;BME280;57291;37.520;15.106;2024-03-07T03:13:01;101493.00;;;9.72;52.01
54556;BME280;57291;37.520;15.106;2024-03-07T03:15:29;101490.81;;;9.74;51.93
54556;BME280;57291;37.520;15.106;2024-03-07T03:17:57;101491.09;;;9.77;51.94
54556;BME280;57291;37.520;15.106;2024-03-07T03:20:29;101488.66;;;9.81;51.63
54556;BME280;57291;37.520;15.106;2024-03-07T03:23:06;101486.47;;;9.83;51.48
54556;BME280;57291;37.520;15.106;2024-03-07T03:25:47;101488.94;;;9.84;51.57
54556;BME280;57291;37.520;15.106;2024-03-07T03:28:18;101492.72;;;9.89;51.35
54556;BME280;57291;37.520;15.106;2024-03-07T03:30:47;101479.97;;;9.84;51.17
54556;BME280;57291;37.520;15.106;2024-03-07T03:33:15;101477.78;;;9.81;51.11
54556;BME280;57291;37.520;15.106;2024-03-07T03:35:43;101478.84;;;9.80;51.62
54556;BME280;57291;37.520;15.106;2024-03-07T03:38:11;101478.06;;;9.74;51.93
54556;BME280;57291;37.520;15.106;2024-03-07T03:40:39;101481.56;;;9.70;52.07
54556;BME280;57291;37.520;15.106;2024-03-07T03:43:06;101474.50;;;9.63;52.57
54556;BME280;57291;37.520;15.106;2024-03-07T03:45:34;101466.38;;;9.58;52.70
54556;BME280;57291;37.520;15.106;2024-03-07T03:48:02;101474.50;;;9.53;52.83
54556;BME280;57291;37.520;15.106;2024-03-07T03:50:30;101475.56;;;9.47;52.96
54556;BME280;57291;37.520;15.106;2024-03-07T03:52:58;101479.09;;;9.37;53.34
54556;BME280;57291;37.520;15.106;2024-03-07T03:55:28;101480.72;;;9.33;53.83
54556;BME280;57291;37.520;15.106;2024-03-07T03:57:55;101474.75;;;9.31;53.97
54556;BME280;57291;37.520;15.106;2024-03-07T04:00:23;101486.41;;;9.27;54.21
54556;BME280;57291;37.520;15.106;2024-03-07T04:02:50;101482.84;;;9.21;54.52
54556;BME280;57291;37.520;15.106;2024-03-07T04:05:19;101478.25;;;9.16;54.79
54556;BME280;57291;37.520;15.106;2024-03-07T04:07:47;101477.13;;;9.02;56.47
54556;BME280;57291;37.520;15.106;2024-03-07T04:10:16;101473.81;;;8.90;56.97
54556;BME280;57291;37.520;15.106;2024-03-07T04:12:45;101479.78;;;8.87;57.38
54556;BME280;57291;37.520;15.106;2024-03-07T04:15:14;101475.97;;;8.88;56.91
54556;BME280;57291;37.520;15.106;2024-03-07T04:17:46;101486.84;;;8.93;56.62
54556;BME280;57291;37.520;15.106;2024-03-07T04:20:15;101478.72;;;8.98;56.10
54556;BME280;57291;37.520;15.106;2024-03-07T04:22:46;101478.19;;;9.01;55.91
54556;BME280;57291;37.520;15.106;2024-03-07T04:25:14;101478.22;;;9.06;55.46
54556;BME280;57291;37.520;15.106;2024-03-07T04:27:45;101475.78;;;9.10;55.74
54556;BME280;57291;37.520;15.106;2024-03-07T04:30:13;101480.13;;;9.11;55.71
54556;BME280;57291;37.520;15.106;2024-03-07T04:32:42;101474.16;;;9.09;55.80
54556;BME280;57291;37.520;15.106;2024-03-07T04:35:10;101472.50;;;9.03;56.27
54556;BME280;57291;37.520;15.106;2024-03-07T04:37:41;101478.75;;;9.03;57.20
54556;BME280;57291;37.520;15.106;2024-03-07T04:40:09;101471.16;;;9.05;57.70
54556;BME280;57291;37.520;15.106;2024-03-07T04:42:46;101472.78;;;9.06;57.82
54556;BME280;57291;37.520;15.106;2024-03-07T04:45:16;101475.78;;;9.10;58.82
54556;BME280;57291;37.520;15.106;2024-03-07T04:47:44;101471.44;;;9.14;59.76
54556;BME280;57291;37.520;15.106;2024-03-07T04:50:13;101467.91;;;9.13;60.03
54556;BME280;57291;37.520;15.106;2024-03-07T04:52:46;101465.50;;;9.12;60.48
54556;BME280;57291;37.520;15.106;2024-03-07T04:55:15;101478.25;;;9.11;60.93
54556;BME280;57291;37.520;15.106;2024-03-07T04:57:43;101482.56;;;9.12;61.23
54556;BME280;57291;37.520;15.106;2024-03-07T05:00:12;101476.88;;;9.09;61.48
54556;BME280;57291;37.520;15.106;2024-03-07T05:02:46;101480.13;;;9.06;61.50
54556;BME280;57291;37.520;15.106;2024-03-07T05:05:15;101483.88;;;9.05;61.63
54556;BME280;57291;37.520;15.106;2024-03-07T05:07:50;101479.03;;;9.02;61.63
54556;BME280;57291;37.520;15.106;2024-03-07T05:10:18;101478.19;;;9.01;62.32
54556;BME280;57291;37.520;15.106;2024-03-07T05:12:46;101478.19;;;9.01;61.87
54556;BME280;57291;37.520;15.106;2024-03-07T05:15:13;101474.66;;;9.01;62.15
54556;BME280;57291;37.520;15.106;2024-03-07T05:17:40;101472.22;;;8.99;62.29
54556;BME280;57291;37.520;15.106;2024-03-07T05:20:11;101475.50;;;9.06;62.20
54556;BME280;57291;37.520;15.106;2024-03-07T05:22:40;101484.19;;;9.08;62.29
54556;BME280;57291;37.520;15.106;2024-03-07T05:25:12;101484.19;;;9.13;62.22
54556;BME280;57291;37.520;15.106;2024-03-07T05:27:39;101480.97;;;9.27;62.32
54556;BME280;57291;37.520;15.106;2024-03-07T05:30:08;101484.00;;;9.51;62.17
54556;BME280;57291;37.520;15.106;2024-03-07T05:32:39;101472.63;;;9.84;61.38
54556;BME280;57291;37.520;15.106;2024-03-07T05:35:07;101483.19;;;10.32;60.35
54556;BME280;57291;37.520;15.106;2024-03-07T05:37:35;101487.09;;;10.86;59.14
54556;BME280;57291;37.520;15.106;2024-03-07T05:40:02;101482.16;;;11.47;57.62
54556;BME280;57291;37.520;15.106;2024-03-07T05:42:31;101481.41;;;12.10;56.17
54556;BME280;57291;37.520;15.106;2024-03-07T05:44:59;101481.06;;;12.70;53.40
54556;BME280;57291;37.520;15.106;2024-03-07T05:47:27;101480.69;;;13.38;51.52
54556;BME280;57291;37.520;15.106;2024-03-07T05:49:54;101486.53;;;13.70;50.34
54556;BME280;57291;37.520;15.106;2024-03-07T05:52:22;101495.59;;;14.30;49.63
54556;BME280;57291;37.520;15.106;2024-03-07T05:54:50;101496.00;;;14.38;48.04
54556;BME280;57291;37.520;15.106;2024-03-07T05:57:17;101500.31;;;14.85;47.45
54556;BME280;57291;37.520;15.106;2024-03-07T05:59:44;101486.53;;;15.27;45.84
54556;BME280;57291;37.520;15.106;2024-03-07T06:02:13;101485.09;;;15.65;45.31
54556;BME280;57291;37.520;15.106;2024-03-07T06:04:43;101483.88;;;15.71;44.01
54556;BME280;57291;37.520;15.106;2024-03-07T06:07:10;101492.66;;;16.05;43.62
54556;BME280;57291;37.520;15.106;2024-03-07T06:09:38;101491.75;;;16.49;41.59
54556;BME280;57291;37.520;15.106;2024-03-07T06:12:05;101480.03;;;16.66;41.05
54556;BME280;57291;37.520;15.106;2024-03-07T06:14:49;101492.25;;;16.91;40.78
54556;BME280;57291;37.520;15.106;2024-03-07T06:17:16;101481.78;;;17.02;39.41
54556;BME280;57291;37.520;15.106;2024-03-07T06:19:49;101474.00;;;17.04;38.95
54556;BME280;57291;37.520;15.106;2024-03-07T06:22:16;101478.91;;;17.59;38.83
54556;BME280;57291;37.520;15.106;2024-03-07T06:24:44;101482.63;;;17.54;37.79
54556;BME280;57291;37.520;15.106;2024-03-07T06:27:11;101480.03;;;17.49;37.24
54556;BME280;57291;37.520;15.106;2024-03-07T06:29:54;101478.09;;;17.93;36.78
54556;BME280;57291;37.520;15.106;2024-03-07T06:32:22;101485.00;;;17.99;36.12
54556;BME280;57291;37.520;15.106;2024-03-07T06:34:50;101482.03;;;18.31;35.91
54556;BME280;57291;37.520;15.106;2024-03-07T06:37:17;101470.31;;;17.87;35.26
54556;BME280;57291;37.520;15.106;2024-03-07T06:39:46;101478.84;;;18.11;35.92
54556;BME280;57291;37.520;15.106;2024-03-07T06:42:13;101480.56;;;18.33;35.33
54556;BME280;57291;37.520;15.106;2024-03-07T06:44:43;101476.31;;;18.44;34.90
54556;BME280;57291;37.520;15.106;2024-03-07T06:47:10;101487.97;;;18.41;35.67
54556;BME280;57291;37.520;15.106;2024-03-07T06:49:37;101478.75;;;18.46;35.10
54556;BME280;57291;37.520;15.106;2024-03-07T06:52:07;101482.66;;;18.36;35.80
54556;BME280;57291;37.520;15.106;2024-03-07T06:54:35;101483.72;;;18.52;35.65
54556;BME280;57291;37.520;15.106;2024-03-07T06:57:03;101485.00;;;18.93;35.39
54556;BME280;57291;37.520;15.106;2024-03-07T06:59:30;101479.91;;;19.67;34.84
54556;BME280;57291;37.520;15.106;2024-03-07T07:01:58;101478.03;;;20.37;33.91
54556;BME280;57291;37.520;15.106;2024-03-07T07:04:26;101483.69;;;20.78;33.35
54556;BME280;57291;37.520;15.106;2024-03-07T07:06:59;101489.38;;;21.22;32.70
54556;BME280;57291;37.520;15.106;2024-03-07T07:09:26;101478.66;;;21.73;31.98
54556;BME280;57291;37.520;15.106;2024-03-07T07:11:53;101482.53;;;22.00;31.79
54556;BME280;57291;37.520;15.106;2024-03-07T07:14:21;101481.94;;;22.07;31.66
54556;BME280;57291;37.520;15.106;2024-03-07T07:16:48;101470.06;;;22.06;31.68
54556;BME280;57291;37.520;15.106;2024-03-07T07:19:15;101467.22;;;21.74;31.71
54556;BME280;57291;37.520;15.106;2024-03-07T07:21:43;101470.13;;;21.94;31.57
54556;BME280;57291;37.520;15.106;2024-03-07T07:24:11;101467.78;;;21.80;31.51
54556;BME280;57291;37.520;15.106;2024-03-07T07:26:38;101466.22;;;21.67;32.05
54556;BME280;57291;37.520;15.106;2024-03-07T07:29:06;101473.06;;;21.57;32.59
54556;BME280;57291;37.520;15.106;2024-03-07T07:31:33;101471.06;;;21.29;32.24
54556;BME280;57291;37.520;15.106;2024-03-07T07:34:01;101472.69;;;21.18;32.90
54556;BME280;57291;37.520;15.106;2024-03-07T07:36:31;101471.38;;;20.88;32.85
54556;BME280;57291;37.520;15.106;2024-03-07T07:38:59;101462.78;;;19.95;34.20
54556;BME280;57291;37.520;15.106;2024-03-07T07:41:27;101472.00;;;20.23;34.13
54556;BME280;57291;37.520;15.106;2024-03-07T07:43:54;101469.47;;;20.06;33.87
54556;BME280;57291;37.520;15.106;2024-03-07T07:46:23;101474.75;;;19.65;35.03
54556;BME280;57291;37.520;15.106;2024-03-07T07:48:50;101474.19;;;19.30;35.11
54556;BME280;57291;37.520;15.106;2024-03-07T07:51:18;101477.63;;;18.77;36.29
54556;BME280;57291;37.520;15.106;2024-03-07T07:53:45;101479.44;;;18.25;37.03
54556;BME280;57291;37.520;15.106;2024-03-07T07:56:13;101460.31;;;17.65;38.24
54556;BME280;57291;37.520;15.106;2024-03-07T07:58:40;101462.75;;;17.31;39.18
54556;BME280;57291;37.520;15.106;2024-03-07T08:01:07;101456.59;;;17.17;39.55
54556;BME280;57291;37.520;15.106;2024-03-07T08:03:37;101457.75;;;16.68;40.54
54556;BME280;57291;37.520;15.106;2024-03-07T08:06:05;101463.75;;;16.30;41.29
54556;BME280;57291;37.520;15.106;2024-03-07T08:08:32;101456.84;;;16.01;42.35
54556;BME280;57291;37.520;15.106;2024-03-07T08:11:00;101453.03;;;15.88;43.17
54556;BME280;57291;37.520;15.106;2024-03-07T08:13:28;101465.03;;;15.56;44.22
54556;BME280;57291;37.520;15.106;2024-03-07T08:15:55;101456.59;;;15.44;44.67
54556;BME280;57291;37.520;15.106;2024-03-07T08:18:23;101459.19;;;15.49;45.25
54556;BME280;57291;37.520;15.106;2024-03-07T08:20:50;101448.72;;;15.29;45.86
54556;BME280;57291;37.520;15.106;2024-03-07T08:23:22;101451.53;;;15.01;47.30
54556;BME280;57291;37.520;15.106;2024-03-07T08:25:52;101453.25;;;14.97;47.74
54556;BME280;57291;37.520;15.106;2024-03-07T08:28:20;101454.63;;;15.22;47.93
54556;BME280;57291;37.520;15.106;2024-03-07T08:30:47;101439.81;;;15.23;48.36
54556;BME280;57291;37.520;15.106;2024-03-07T08:33:14;101454.84;;;15.48;48.04
54556;BME280;57291;37.520;15.106;2024-03-07T08:35:42;101455.56;;;15.76;48.23
54556;BME280;57291;37.520;15.106;2024-03-07T08:38:09;101448.34;;;16.11;47.38
54556;BME280;57291;37.520;15.106;2024-03-07T08:40:39;101440.63;;;16.22;46.35
54556;BME280;57291;37.520;15.106;2024-03-07T08:43:07;101435.75;;;16.10;46.55
54556;BME280;57291;37.520;15.106;2024-03-07T08:45:34;101434.53;;;16.25;46.64
54556;BME280;57291;37.520;15.106;2024-03-07T08:48:03;101431.53;;;16.44;46.16
54556;BME280;57291;37.520;15.106;2024-03-07T08:50:37;101435.41;;;16.43;44.42
54556;BME280;57291;37.520;15.106;2024-03-07T08:53:06;101431.47;;;16.27;44.48
54556;BME280;57291;37.520;15.106;2024-03-07T08:55:34;101426.44;;;16.20;44.56
54556;BME280;57291;37.520;15.106;2024-03-07T08:58:04;101438.75;;;16.31;44.57
54556;BME280;57291;37.520;15.106;2024-03-07T09:00:35;101432.81;;;16.38;44.54
54556;BME280;57291;37.520;15.106;2024-03-07T09:03:06;101435.25;;;16.48;44.52
54556;BME280;57291;37.520;15.106;2024-03-07T09:05:39;101427.34;;;16.47;45.25
54556;BME280;57291;37.520;15.106;2024-03-07T09:08:08;101436.44;;;16.64;45.01
54556;BME280;57291;37.520;15.106;2024-03-07T09:10:35;101429.72;;;16.79;45.15
54556;BME280;57291;37.520;15.106;2024-03-07T09:13:04;101437.81;;;16.93;44.43
54556;BME280;57291;37.520;15.106;2024-03-07T09:15:33;101427.03;;;17.05;43.55
54556;BME280;57291;37.520;15.106;2024-03-07T09:18:01;101425.38;;;17.04;43.82
54556;BME280;57291;37.520;15.106;2024-03-07T09:20:31;101423.47;;;17.14;43.90
54556;BME280;57291;37.520;15.106;2024-03-07T09:22:59;101429.47;;;17.24;43.95
54556;BME280;57291;37.520;15.106;2024-03-07T09:25:27;101421.38;;;17.19;44.31
54556;BME280;57291;37.520;15.106;2024-03-07T09:27:54;101412.47;;;17.40;44.31
54556;BME280;57291;37.520;15.106;2024-03-07T09:30:22;101412.31;;;17.45;44.07
54556;BME280;57291;37.520;15.106;2024-03-07T09:32:56;101403.72;;;17.46;44.54
54556;BME280;57291;37.520;15.106;2024-03-07T09:35:24;101399.66;;;17.70;44.18
54556;BME280;57291;37.520;15.106;2024-03-07T09:37:52;101404.31;;;17.95;43.34
54556;BME280;57291;37.520;15.106;2024-03-07T09:40:21;101410.16;;;17.94;43.36
54556;BME280;57291;37.520;15.106;2024-03-07T09:42:55;101412.19;;;18.05;43.05
54556;BME280;57291;37.520;15.106;2024-03-07T09:45:29;101403.78;;;18.11;42.61
54556;BME280;57291;37.520;15.106;2024-03-07T09:47:57;101403.44;;;18.12;42.58
54556;BME280;57291;37.520;15.106;2024-03-07T09:50:26;101405.50;;;18.24;42.25
54556;BME280;57291;37.520;15.106;2024-03-07T09:52:56;101414.16;;;18.43;42.50
54556;BME280;57291;37.520;15.106;2024-03-07T09:55:25;101411.00;;;18.24;42.01
54556;BME280;57291;37.520;15.106;2024-03-07T09:57:54;101412.22;;;18.35;41.59
54556;BME280;57291;37.520;15.106;2024-03-07T10:00:25;101406.56;;;18.40;41.65
54556;BME280;57291;37.520;15.106;2024-03-07T10:03:08;101396.09;;;18.25;41.34
54556;BME280;57291;37.520;15.106;2024-03-07T10:05:38;101402.75;;;18.54;41.31
54556;BME280;57291;37.520;15.106;2024-03-07T10:08:06;101402.50;;;18.67;39.57
54556;BME280;57291;37.520;15.106;2024-03-07T10:10:35;101408.66;;;18.73;39.21
54556;BME280;57291;37.520;15.106;2024-03-07T10:13:02;101406.94;;;18.60;39.47
54556;BME280;57291;37.520;15.106;2024-03-07T10:15:31;101387.00;;;18.63;39.62
54556;BME280;57291;37.520;15.106;2024-03-07T10:17:59;101394.78;;;18.90;37.63
54556;BME280;57291;37.520;15.106;2024-03-07T10:20:28;101385.16;;;18.96;38.19
54556;BME280;57291;37.520;15.106;2024-03-07T10:22:57;101391.13;;;19.19;37.15
54556;BME280;57291;37.520;15.106;2024-03-07T10:25:24;101391.25;;;19.23;37.05
54556;BME280;57291;37.520;15.106;2024-03-07T10:27:56;101381.53;;;19.26;35.99
54556;BME280;57291;37.520;15.106;2024-03-07T10:30:27;101384.41;;;19.08;36.20
54556;BME280;57291;37.520;15.106;2024-03-07T10:32:57;101377.66;;;19.39;36.23
54556;BME280;57291;37.520;15.106;2024-03-07T10:35:27;101384.59;;;19.45;36.11
54556;BME280;57291;37.520;15.106;2024-03-07T10:37:59;101380.84;;;19.29;36.70
54556;BME280;57291;37.520;15.106;2024-03-07T10:40:36;101371.41;;;18.96;37.54
54556;BME280;57291;37.520;15.106;2024-03-07T10:43:12;101374.59;;;18.98;37.70
54556;BME280;57291;37.520;15.106;2024-03-07T10:45:47;101367.34;;;19.15;36.77
54556;BME280;57291;37.520;15.106;2024-03-07T10:48:19;101367.13;;;19.20;36.80
54556;BME280;57291;37.520;15.106;2024-03-07T10:53:32;101368.19;;;19.61;35.98
54556;BME280;57291;37.520;15.106;2024-03-07T10:59:07;101351.38;;;19.87;34.88
54556;BME280;57291;37.520;15.106;2024-03-07T11:01:41;101357.63;;;19.63;34.37
54556;BME280;57291;37.520;15.106;2024-03-07T11:04:10;101354.75;;;19.59;34.68
54556;BME280;57291;37.520;15.106;2024-03-07T11:06:42;101350.69;;;19.78;34.35
54556;BME280;57291;37.520;15.106;2024-03-07T11:09:10;101350.34;;;19.91;34.51
54556;BME280;57291;37.520;15.106;2024-03-07T11:11:38;101365.53;;;19.98;34.17
54556;BME280;57291;37.520;15.106;2024-03-07T11:14:11;101361.97;;;19.85;34.25
54556;BME280;57291;37.520;15.106;2024-03-07T11:16:40;101355.97;;;19.83;34.43
54556;BME280;57291;37.520;15.106;2024-03-07T11:19:23;101356.31;;;19.94;34.17
54556;BME280;57291;37.520;15.106;2024-03-07T11:21:56;101357.25;;;20.10;33.48
54556;BME280;57291;37.520;15.106;2024-03-07T11:26:53;101355.19;;;20.19;33.94
54556;BME280;57291;37.520;15.106;2024-03-07T11:32:13;101359.41;;;20.78;33.81
54556;BME280;57291;37.520;15.106;2024-03-07T11:34:43;101363.22;;;20.73;36.55
54556;BME280;57291;37.520;15.106;2024-03-07T11:37:18;101353.34;;;20.48;35.77
54556;BME280;57291;37.520;15.106;2024-03-07T11:39:47;101354.59;;;20.50;38.10
54556;BME280;57291;37.520;15.106;2024-03-07T11:42:27;101334.81;;;20.36;34.27
54556;BME280;57291;37.520;15.106;2024-03-07T11:44:57;101329.88;;;20.54;35.38
54556;BME280;57291;37.520;15.106;2024-03-07T11:47:38;101345.53;;;20.37;40.29
54556;BME280;57291;37.520;15.106;2024-03-07T11:50:07;101332.50;;;19.77;38.59
54556;BME280;57291;37.520;15.106;2024-03-07T11:52:47;101324.03;;;20.06;39.49
54556;BME280;57291;37.520;15.106;2024-03-07T11:55:15;101304.38;;;20.08;32.35
54556;BME280;57291;37.520;15.106;2024-03-07T11:57:44;101318.63;;;20.10;38.84
54556;BME280;57291;37.520;15.106;2024-03-07T12:00:14;101323.59;;;20.04;39.58
54556;BME280;57291;37.520;15.106;2024-03-07T12:02:42;101307.84;;;20.17;37.41
54556;BME280;57291;37.520;15.106;2024-03-07T12:05:14;101324.38;;;20.17;38.83
54556;BME280;57291;37.520;15.106;2024-03-07T12:07:44;101320.81;;;20.04;39.91
54556;BME280;57291;37.520;15.106;2024-03-07T12:10:12;101323.72;;;19.50;40.10
54556;BME280;57291;37.520;15.106;2024-03-07T12:12:42;101300.88;;;19.16;39.65
54556;BME280;57291;37.520;15.106;2024-03-07T12:15:11;101309.44;;;19.36;40.10
54556;BME280;57291;37.520;15.106;2024-03-07T12:17:49;101324.25;;;19.43;40.62
54556;BME280;57291;37.520;15.106;2024-03-07T12:20:17;101318.97;;;18.63;44.90
54556;BME280;57291;37.520;15.106;2024-03-07T12:22:59;101320.19;;;18.54;45.02
54556;BME280;57291;37.520;15.106;2024-03-07T12:25:30;101333.59;;;18.55;46.42
54556;BME280;57291;37.520;15.106;2024-03-07T12:28:11;101314.84;;;18.48;47.54
54556;BME280;57291;37.520;15.106;2024-03-07T12:30:52;101324.97;;;18.36;47.13
54556;BME280;57291;37.520;15.106;2024-03-07T12:33:21;101307.47;;;18.40;47.14
54556;BME280;57291;37.520;15.106;2024-03-07T12:35:54;101302.69;;;18.28;46.16
54556;BME280;57291;37.520;15.106;2024-03-07T12:38:28;101300.28;;;18.27;44.14
54556;BME280;57291;37.520;15.106;2024-03-07T12:41:04;101300.81;;;18.41;45.58
54556;BME280;57291;37.520;15.106;2024-03-07T12:43:33;101299.25;;;18.11;43.87
54556;BME280;57291;37.520;15.106;2024-03-07T12:46:01;101286.97;;;18.29;44.16
54556;BME280;57291;37.520;15.106;2024-03-07T12:48:28;101307.59;;;18.73;43.05
54556;BME280;57291;37.520;15.106;2024-03-07T12:50:56;101283.13;;;18.72;42.53
54556;BME280;57291;37.520;15.106;2024-03-07T12:53:24;101282.19;;;18.89;42.86
54556;BME280;57291;37.520;15.106;2024-03-07T12:55:56;101290.66;;;18.63;44.08
54556;BME280;57291;37.520;15.106;2024-03-07T12:58:24;101291.44;;;18.42;45.67
54556;BME280;57291;37.520;15.106;2024-03-07T13:00:57;101292.88;;;18.19;46.10
54556;BME280;57291;37.520;15.106;2024-03-07T13:03:25;101279.78;;;18.16;47.07